Time;durP1;ratioP1;P1;durP2;ratioP2;P2;SDS_P1;SDS_P2;PMS_P1;PMS_P2;Temp;Humidity;BMP_temperature;BMP_pressure;BME280_temperature;BME280_humidity;BME280_pressure;Samples;Min_cycle;Max_cycle;Signal;HPM_P1;HPM_P2
2023/04/16 00:01:45;;;;;;;3.03;2.83;;;11.00;42.50;;;;;;10338727;28;20297;-73
2023/04/16 00:06:48;;;;;;;2.93;2.73;;;10.90;42.80;;;;;;10340174;28;20229;-71
2023/04/16 00:11:51;;;;;;;3.13;2.93;;;10.90;42.70;;;;;;10341279;28;20292;-71
2023/04/16 00:16:56;;;;;;;3.23;3.03;;;10.90;42.80;;;;;;10343179;28;20226;-71
2023/04/16 00:21:59;;;;;;;3.33;3.13;;;10.80;43.00;;;;;;10336834;28;20322;-72
2023/04/16 00:27:02;;;;;;;3.50;3.30;;;10.80;42.90;;;;;;10335105;28;20211;-72
2023/04/16 00:32:07;;;;;;;3.20;3.00;;;10.70;42.80;;;;;;10341241;28;20235;-72
2023/04/16 00:37:10;;;;;;;2.90;2.70;;;10.70;43.20;;;;;;10339552;28;20238;-71
2023/04/16 00:42:14;;;;;;;3.57;3.27;;;10.60;43.60;;;;;;10340073;28;20265;-72
2023/04/16 00:47:20;;;;;;;3.00;2.90;;;10.60;43.00;;;;;;10336957;28;20804;-72
2023/04/16 00:52:23;;;;;;;3.07;2.87;;;10.60;43.50;;;;;;10338094;28;20279;-72
2023/04/16 00:57:26;;;;;;;3.50;3.30;;;10.60;43.00;;;;;;10338169;28;20242;-72
2023/04/16 01:02:31;;;;;;;3.10;2.90;;;10.50;42.90;;;;;;10355561;28;20238;-71
2023/04/16 01:07:34;;;;;;;3.10;2.90;;;10.50;43.80;;;;;;10368606;28;20222;-71
2023/04/16 01:12:38;;;;;;;3.00;2.80;;;10.50;43.20;;;;;;10368348;28;20234;-73
2023/04/16 01:17:44;;;;;;;3.00;2.77;;;10.50;43.20;;;;;;10390087;28;20234;-71
2023/04/16 01:22:49;;;;;;;2.60;2.50;;;10.50;43.40;;;;;;10388361;23;20266;-69
2023/04/16 01:27:53;;;;;;;2.93;2.73;;;10.60;43.50;;;;;;10278627;28;20224;-69
2023/04/16 01:32:56;;;;;;;2.53;2.40;;;10.60;43.20;;;;;;10254868;28;20583;-69
2023/04/16 01:38:01;;;;;;;2.83;2.63;;;10.60;43.00;;;;;;10256360;28;20236;-70
2023/04/16 01:43:04;;;;;;;2.77;2.57;;;10.60;43.30;;;;;;10254656;28;20231;-70
2023/04/16 01:48:09;;;;;;;2.70;2.53;;;10.60;43.10;;;;;;10255994;28;20242;-70
2023/04/16 01:53:13;;;;;;;2.77;2.57;;;10.50;43.10;;;;;;10256590;28;20227;-70
2023/04/16 01:58:16;;;;;;;2.80;2.60;;;10.60;43.30;;;;;;10252085;28;20681;-69
2023/04/16 02:03:20;;;;;;;2.80;2.60;;;10.60;43.10;;;;;;10254238;28;20236;-70
2023/04/16 02:08:25;;;;;;;2.60;2.50;;;10.60;43.00;;;;;;10254433;28;20243;-70
2023/04/16 02:13:28;;;;;;;2.80;2.60;;;10.50;43.20;;;;;;10253861;28;20232;-71
2023/04/16 02:18:31;;;;;;;3.00;2.80;;;10.50;42.90;;;;;;10253095;28;20272;-69
2023/04/16 02:23:36;;;;;;;2.90;2.70;;;10.50;43.10;;;;;;10251992;28;20224;-70
2023/04/16 02:28:39;;;;;;;3.17;2.97;;;10.50;43.40;;;;;;10251214;28;20243;-70
2023/04/16 02:33:42;;;;;;;3.13;2.93;;;10.50;43.10;;;;;;10251699;28;20603;-70
2023/04/16 02:38:47;;;;;;;3.20;2.40;;;10.40;43.10;;;;;;10254297;28;20575;-69
2023/04/16 02:43:50;;;;;;;3.00;2.80;;;10.50;43.50;;;;;;10253309;28;20235;-70
2023/04/16 02:48:53;;;;;;;3.00;2.80;;;10.50;43.20;;;;;;10255333;28;20232;-69
2023/04/16 02:53:58;;;;;;;2.97;2.77;;;10.40;43.20;;;;;;10252946;28;20220;-70
2023/04/16 02:59:01;;;;;;;2.67;2.57;;;10.40;43.50;;;;;;10249876;28;20232;-72
2023/04/16 03:04:04;;;;;;;2.60;2.43;;;10.50;43.40;;;;;;10248230;28;20224;-70
2023/04/16 03:09:09;;;;;;;2.63;2.53;;;10.50;43.40;;;;;;10249126;28;20239;-71
2023/04/16 03:14:13;;;;;;;3.03;2.83;;;10.50;43.60;;;;;;10248562;28;20223;-71
2023/04/16 03:19:16;;;;;;;2.87;2.67;;;10.50;43.40;;;;;;10250723;28;20231;-70
2023/04/16 03:24:20;;;;;;;3.13;2.97;;;10.50;43.30;;;;;;10245989;28;20235;-70
2023/04/16 03:29:23;;;;;;;3.30;3.10;;;10.50;43.40;;;;;;10250076;28;20599;-69
2023/04/16 03:34:26;;;;;;;3.43;3.20;;;10.50;43.40;;;;;;10253163;28;20643;-70
2023/04/16 03:39:32;;;;;;;3.47;3.27;;;10.50;43.40;;;;;;10250950;28;20599;-70
2023/04/16 03:44:35;;;;;;;3.90;3.60;;;10.50;43.60;;;;;;10250739;28;20703;-70
2023/04/16 03:49:39;;;;;;;3.97;3.77;;;10.50;43.50;;;;;;10246750;28;20228;-70
2023/04/16 03:54:43;;;;;;;3.97;3.73;;;10.40;43.50;;;;;;10252236;28;20235;-70
2023/04/16 03:59:46;;;;;;;4.00;3.70;;;10.50;43.60;;;;;;10247849;28;20360;-70
2023/04/16 04:04:49;;;;;;;4.13;3.87;;;10.40;43.60;;;;;;10248328;28;20231;-70
2023/04/16 04:09:54;;;;;;;4.10;3.83;;;10.50;43.70;;;;;;10252594;28;20705;-72
2023/04/16 04:14:57;;;;;;;4.20;3.90;;;10.50;43.80;;;;;;10251467;28;20224;-70
2023/04/16 04:20:00;;;;;;;3.67;3.47;;;10.50;43.60;;;;;;10245480;28;20232;-70
2023/04/16 04:25:07;;;;;;;4.07;3.80;;;10.50;43.70;;;;;;10293444;28;20314;-71
2023/04/16 04:30:11;;;;;;;4.07;3.87;;;10.50;44.00;;;;;;10292564;28;20230;-71
2023/04/16 04:35:14;;;;;;;4.53;4.23;;;10.50;43.80;;;;;;10298052;28;20357;-70
2023/04/16 04:40:19;;;;;;;4.17;3.97;;;10.50;43.70;;;;;;10296669;28;20231;-70
2023/04/16 04:45:24;;;;;;;4.70;4.40;;;10.50;44.00;;;;;;10294561;28;20641;-70
2023/04/16 04:50:27;;;;;;;4.77;4.47;;;10.50;43.70;;;;;;10293562;28;20228;-70
2023/04/16 04:55:32;;;;;;;4.73;4.43;;;10.40;43.70;;;;;;10297270;28;20231;-70
2023/04/16 05:00:36;;;;;;;4.50;4.20;;;10.40;44.00;;;;;;10291712;28;20226;-70
2023/04/16 05:05:39;;;;;;;4.87;4.57;;;10.40;44.00;;;;;;10294548;28;20227;-70
2023/04/16 05:10:44;;;;;;;4.93;4.57;;;10.40;43.90;;;;;;10297054;28;20307;-70
2023/04/16 05:15:47;;;;;;;4.67;4.37;;;10.40;44.20;;;;;;10295217;28;20223;-70
2023/04/16 05:20:50;;;;;;;4.60;4.30;;;10.40;44.00;;;;;;10297071;28;20353;-69
2023/04/16 05:25:54;;;;;;;5.07;4.77;;;10.50;44.20;;;;;;10293554;28;20223;-70
2023/04/16 05:30:57;;;;;;;5.33;5.03;;;10.40;44.50;;;;;;10290732;28;20235;-69
2023/04/16 05:36:01;;;;;;;5.60;5.20;;;10.50;44.30;;;;;;10290710;28;20254;-70
2023/04/16 05:41:05;;;;;;;5.80;5.40;;;10.50;44.30;;;;;;10290716;28;20228;-71
2023/04/16 05:46:09;;;;;;;5.90;5.50;;;10.50;44.70;;;;;;10290542;28;20231;-71
2023/04/16 05:51:12;;;;;;;6.00;5.57;;;10.50;44.40;;;;;;10291770;28;20234;-70
2023/04/16 05:56:19;;;;;;;5.60;5.20;;;10.50;44.30;;;;;;10293918;28;20224;-71
2023/04/16 06:01:22;;;;;;;5.83;5.43;;;10.50;44.70;;;;;;10290911;28;20278;-70
2023/04/16 06:06:29;;;;;;;5.60;5.20;;;10.50;44.60;;;;;;10298295;28;20240;-70
2023/04/16 06:11:34;;;;;;;4.97;4.67;;;10.60;44.70;;;;;;10290786;28;20965;-72
2023/04/16 06:16:38;;;;;;;4.93;4.63;;;10.60;45.10;;;;;;10290425;28;20228;-70
2023/04/16 06:21:41;;;;;;;4.70;4.40;;;10.60;45.00;;;;;;10298487;28;20223;-70
2023/04/16 06:26:46;;;;;;;4.80;4.50;;;10.60;45.00;;;;;;10290587;28;21180;-70
2023/04/16 06:31:49;;;;;;;4.37;4.07;;;10.70;45.40;;;;;;10294875;28;20231;-71
2023/04/16 06:36:52;;;;;;;4.40;4.10;;;10.80;45.20;;;;;;10290185;28;20231;-71
2023/04/16 06:41:57;;;;;;;3.90;3.70;;;10.80;45.30;;;;;;10290238;28;20238;-70
2023/04/16 06:47:00;;;;;;;4.37;4.07;;;10.80;45.60;;;;;;10294467;28;20237;-70
2023/04/16 06:52:03;;;;;;;4.10;3.80;;;10.90;45.40;;;;;;10289338;28;20223;-71
2023/04/16 06:57:10;;;;;;;3.53;3.33;;;11.00;45.60;;;;;;10294956;28;20270;-71
2023/04/16 07:02:13;;;;;;;3.57;3.37;;;11.00;46.00;;;;;;10290632;28;20646;-71
2023/04/16 07:07:16;;;;;;;3.97;3.70;;;11.10;45.50;;;;;;10292123;28;20314;-72
2023/04/16 07:12:21;;;;;;;4.07;3.77;;;11.20;45.50;;;;;;10292336;28;20259;-70
2023/04/16 07:17:25;;;;;;;2.77;2.67;;;11.30;46.10;;;;;;10293781;28;20313;-69
2023/04/16 07:22:28;;;;;;;3.43;3.23;;;11.40;45.40;;;;;;10292153;28;20227;-70
2023/04/16 07:27:33;;;;;;;3.27;2.97;;;11.50;45.50;;;;;;10294747;28;20231;-70
2023/04/16 07:32:36;;;;;;;3.03;2.83;;;11.50;46.00;;;;;;10293398;28;20224;-69
2023/04/16 07:37:40;;;;;;;3.07;2.87;;;11.60;45.60;;;;;;10296827;28;20604;-70
2023/04/16 07:42:44;;;;;;;2.80;2.60;;;11.60;45.60;;;;;;10291232;28;20233;-71
2023/04/16 07:47:48;;;;;;;2.60;2.50;;;11.70;46.00;;;;;;10295777;28;20231;-70
2023/04/16 07:52:53;;;;;;;2.60;2.50;;;11.70;45.50;;;;;;10294423;28;20306;-70
2023/04/16 07:57:58;;;;;;;2.60;2.50;;;11.80;45.50;;;;;;10290877;28;20235;-70
2023/04/16 08:03:01;;;;;;;2.07;1.97;;;11.80;45.80;;;;;;10297756;28;20609;-69
2023/04/16 08:08:05;;;;;;;2.10;2.00;;;11.80;45.50;;;;;;10297495;28;20231;-70
2023/04/16 08:13:09;;;;;;;1.87;1.77;;;11.90;45.60;;;;;;10298629;28;20614;-70
2023/04/16 08:18:14;;;;;;;2.10;2.00;;;12.00;45.70;;;;;;10297723;28;20235;-69
2023/04/16 08:23:17;;;;;;;2.27;1.70;;;12.00;45.50;;;;;;10301812;28;20227;-70
2023/04/16 08:28:22;;;;;;;1.50;1.40;;;12.10;45.30;;;;;;10295458;28;20238;-70
2023/04/16 08:33:25;;;;;;;2.07;1.97;;;12.10;45.40;;;;;;10299384;28;20234;-70
2023/04/16 08:38:29;;;;;;;2.03;1.93;;;12.20;45.50;;;;;;10289213;28;20238;-70
2023/04/16 08:43:38;;;;;;;2.20;1.90;;;12.30;45.50;;;;;;10295266;28;20263;-70
2023/04/16 08:48:42;;;;;;;1.60;1.57;;;12.40;45.60;;;;;;10295659;28;20235;-70
2023/04/16 08:53:52;;;;;;;1.57;1.47;;;12.60;45.60;;;;;;10296447;28;20231;-70
2023/04/16 08:58:57;;;;;;;1.00;1.00;;;12.70;45.30;;;;;;10295897;28;20241;-70
2023/04/16 09:04:01;;;;;;;0.70;0.70;;;12.80;45.50;;;;;;10289003;28;20782;-69
2023/04/16 09:09:05;;;;;;;0.90;0.90;;;12.90;45.40;;;;;;10292592;28;20238;-70
2023/04/16 09:14:12;;;;;;;0.67;0.67;;;13.10;44.60;;;;;;10292657;28;20591;-70
2023/04/16 09:19:15;;;;;;;0.70;0.70;;;13.20;43.70;;;;;;10291230;28;20226;-70
2023/04/16 09:24:19;;;;;;;0.80;0.80;;;13.40;44.10;;;;;;10291972;28;20230;-70
2023/04/16 09:29:36;;;;;;;1.27;1.10;;;13.50;44.20;;;;;;10297499;28;20241;-69
2023/04/16 09:34:55;;;;;;;0.80;0.80;;;13.50;43.30;;;;;;10295460;28;20230;-69
2023/04/16 09:39:59;;;;;;;0.90;0.90;;;13.60;43.10;;;;;;10292327;28;20741;-70
2023/04/16 09:45:04;;;;;;;1.67;1.20;;;13.60;43.10;;;;;;10290096;28;20239;-70
2023/04/16 09:50:09;;;;;;;1.10;1.10;;;13.60;43.10;;;;;;10296100;28;20259;-70
2023/04/16 09:55:15;;;;;;;1.03;1.03;;;13.60;43.10;;;;;;10292502;28;20615;-69
2023/04/16 10:00:20;;;;;;;0.80;0.80;;;13.70;43.20;;;;;;10296159;28;20233;-69
2023/04/16 10:05:26;;;;;;;0.90;0.90;;;13.70;43.20;;;;;;10289809;28;20575;-69
2023/04/16 10:10:29;;;;;;;0.90;0.90;;;13.60;43.00;;;;;;10297564;28;20231;-68
2023/04/16 10:15:34;;;;;;;1.03;1.03;;;13.60;43.10;;;;;;10299535;28;20773;-69
2023/04/16 10:20:37;;;;;;;0.90;0.90;;;13.50;43.00;;;;;;10281359;28;20237;-70
2023/04/16 10:25:42;;;;;;;0.83;0.83;;;13.50;43.00;;;;;;10283019;28;20640;-70
2023/04/16 10:30:52;;;;;;;1.00;1.00;;;13.60;43.10;;;;;;10282462;28;20301;-70
2023/04/16 10:36:09;;;;;;;1.70;1.60;;;13.60;42.50;;;;;;10283496;28;20309;-70
2023/04/16 10:41:12;;;;;;;1.90;1.80;;;13.60;41.90;;;;;;10323229;28;20238;-70
2023/04/16 10:46:25;;;;;;;0.93;0.93;;;13.70;43.10;;;;;;10321387;28;20226;-69
2023/04/16 10:51:31;;;;;;;1.43;1.30;;;13.70;42.20;;;;;;10321236;28;20234;-70
2023/04/16 10:56:36;;;;;;;1.00;1.00;;;13.70;43.20;;;;;;10318425;28;20227;-69
2023/04/16 11:01:43;;;;;;;0.90;0.90;;;13.80;42.80;;;;;;10318872;28;20230;-69
2023/04/16 11:07:01;;;;;;;0.80;0.80;;;13.80;41.70;;;;;;10320156;28;20242;-71
2023/04/16 11:12:11;;;;;;;1.00;1.00;;;13.90;41.90;;;;;;10323052;28;20219;-72
2023/04/16 11:17:17;;;;;;;1.10;1.10;;;13.90;41.60;;;;;;10329671;28;20230;-72
2023/04/16 11:22:20;;;;;;;0.67;0.67;;;13.90;42.10;;;;;;10330024;28;20226;-72
2023/04/16 11:27:23;;;;;;;0.77;0.77;;;14.00;42.00;;;;;;10324657;28;20230;-71
2023/04/16 11:32:30;;;;;;;0.73;0.73;;;14.00;41.80;;;;;;10329819;28;20584;-71
2023/04/16 11:37:34;;;;;;;0.70;0.70;;;14.00;41.60;;;;;;10339090;28;20325;-72
2023/04/16 11:42:39;;;;;;;0.70;0.70;;;14.10;41.90;;;;;;10341440;28;20227;-72
2023/04/16 11:47:45;;;;;;;0.80;0.80;;;14.10;41.70;;;;;;10339046;28;20237;-71
2023/04/16 11:52:49;;;;;;;0.80;0.80;;;14.20;41.10;;;;;;10340855;28;20314;-72
2023/04/16 11:57:52;;;;;;;0.60;0.60;;;14.30;41.70;;;;;;10338551;28;20238;-73
2023/04/16 12:02:57;;;;;;;0.90;0.90;;;14.40;41.70;;;;;;10339047;28;20791;-70
2023/04/16 12:08:02;;;;;;;0.80;0.80;;;14.50;41.40;;;;;;10337445;28;20235;-72
2023/04/16 12:13:16;;;;;;;1.60;1.53;;;14.60;41.80;;;;;;10336641;28;20233;-73
2023/04/16 12:18:24;;;;;;;0.93;0.93;;;14.70;40.80;;;;;;10334536;28;21166;-71
2023/04/16 12:23:30;;;;;;;0.87;0.87;;;14.80;40.90;;;;;;10339297;28;20748;-71
2023/04/16 12:28:35;;;;;;;1.40;1.00;;;14.90;41.10;;;;;;10341885;28;20242;-71
2023/04/16 12:33:41;;;;;;;0.70;0.70;;;14.90;41.30;;;;;;10339021;28;20230;-72
2023/04/16 12:38:44;;;;;;;9.53;7.13;;;14.90;40.90;;;;;;10328562;28;20345;-72
2023/04/16 12:43:47;;;;;;;1.50;1.40;;;15.00;41.00;;;;;;10332802;28;20281;-72
2023/04/16 12:48:52;;;;;;;1.20;1.10;;;15.10;40.80;;;;;;10336748;28;20289;-72
2023/04/16 12:53:55;;;;;;;0.80;0.80;;;15.10;40.10;;;;;;10335604;28;20640;-71
2023/04/16 12:58:58;;;;;;;0.70;0.70;;;15.10;40.60;;;;;;10336432;28;20226;-72
2023/04/16 13:04:03;;;;;;;0.60;0.60;;;15.10;40.50;;;;;;10340225;28;20310;-75
2023/04/16 13:09:06;;;;;;;0.80;0.80;;;15.10;40.10;;;;;;10330104;28;20719;-72
2023/04/16 13:14:10;;;;;;;0.77;0.77;;;15.20;40.90;;;;;;10329318;28;20222;-72
2023/04/16 13:19:17;;;;;;;0.60;0.60;;;15.20;40.40;;;;;;10330156;28;20240;-72
2023/04/16 13:24:22;;;;;;;0.70;0.70;;;15.20;40.20;;;;;;10337241;28;20230;-71
2023/04/16 13:29:25;;;;;;;0.70;0.70;;;15.20;40.50;;;;;;10336203;28;20235;-72
2023/04/16 13:34:30;;;;;;;0.80;0.80;;;15.30;40.70;;;;;;10339195;28;20237;-72
2023/04/16 13:39:34;;;;;;;0.73;0.73;;;15.30;40.50;;;;;;10333455;28;20230;-71
2023/04/16 13:44:37;;;;;;;1.20;1.20;;;15.30;40.50;;;;;;10334442;28;20235;-72
2023/04/16 13:49:41;;;;;;;0.83;0.83;;;15.40;40.40;;;;;;10332212;28;20539;-71
2023/04/16 13:54:44;;;;;;;0.70;0.70;;;15.40;39.90;;;;;;10330349;28;20225;-71
2023/04/16 13:59:47;;;;;;;0.80;0.80;;;15.50;40.10;;;;;;10332312;28;21241;-72
2023/04/16 14:04:52;;;;;;;1.07;0.70;;;15.50;40.20;;;;;;10329681;28;20218;-73
2023/04/16 14:09:55;;;;;;;0.60;0.60;;;15.50;40.20;;;;;;10332761;28;20241;-71
2023/04/16 14:14:59;;;;;;;0.63;0.63;;;15.60;40.10;;;;;;10332330;28;20607;-71
2023/04/16 14:20:04;;;;;;;0.60;0.60;;;15.70;39.90;;;;;;10331922;28;20282;-72
2023/04/16 14:25:08;;;;;;;0.70;0.70;;;15.60;39.40;;;;;;10331849;28;20810;-72
2023/04/16 14:30:11;;;;;;;0.50;0.50;;;15.70;39.80;;;;;;10335618;28;20290;-71
2023/04/16 14:35:16;;;;;;;0.70;0.70;;;15.70;39.60;;;;;;10331914;28;20238;-71
2023/04/16 14:40:20;;;;;;;0.70;0.70;;;15.70;38.90;;;;;;10326953;28;20242;-71
2023/04/16 14:45:27;;;;;;;0.90;0.90;;;15.70;39.80;;;;;;10329359;28;20258;-70
2023/04/16 14:50:36;;;;;;;1.70;0.90;;;15.60;39.70;;;;;;10332465;28;20226;-73
2023/04/16 14:55:39;;;;;;;0.63;0.63;;;15.70;39.40;;;;;;10329678;28;20238;-70
2023/04/16 15:00:43;;;;;;;0.70;0.70;;;15.70;39.60;;;;;;10327604;28;20620;-69
2023/04/16 15:05:53;;;;;;;0.60;0.60;;;15.70;39.60;;;;;;10331898;28;20749;-73
2023/04/16 15:10:58;;;;;;;1.30;0.97;;;15.60;38.90;;;;;;10333286;28;20273;-71
2023/04/16 15:16:01;;;;;;;2.03;1.83;;;15.60;40.20;;;;;;10331627;28;20265;-70
2023/04/16 15:21:06;;;;;;;1.60;1.50;;;15.60;39.20;;;;;;10332436;28;20619;-71
2023/04/16 15:26:09;;;;;;;1.20;1.20;;;15.50;38.80;;;;;;10331471;28;20318;-70
2023/04/16 15:31:12;;;;;;;1.00;1.00;;;15.60;39.20;;;;;;10331710;28;20233;-71
2023/04/16 15:36:17;;;;;;;1.00;0.90;;;15.50;39.40;;;;;;10335075;28;20985;-74
2023/04/16 15:41:20;;;;;;;1.00;1.00;;;15.60;39.00;;;;;;10330652;28;20508;-71
2023/04/16 15:46:23;;;;;;;0.90;0.90;;;15.60;39.20;;;;;;10331108;28;20230;-71
2023/04/16 15:51:30;;;;;;;1.00;1.00;;;15.60;39.10;;;;;;10329790;28;20317;-71
2023/04/16 15:56:33;;;;;;;1.50;1.40;;;15.60;38.70;;;;;;10330577;28;20234;-71
2023/04/16 16:01:36;;;;;;;0.90;0.90;;;15.60;38.80;;;;;;10329243;28;20226;-71
2023/04/16 16:06:41;;;;;;;0.90;0.90;;;15.60;38.80;;;;;;10332619;28;20235;-72
2023/04/16 16:11:44;;;;;;;1.30;1.20;;;15.60;38.80;;;;;;10328646;28;20227;-71
2023/04/16 16:16:48;;;;;;;1.30;1.20;;;15.70;38.90;;;;;;10329159;28;21646;-71
2023/04/16 16:21:52;;;;;;;1.87;1.20;;;15.70;38.90;;;;;;10336097;28;20238;-71
2023/04/16 16:26:55;;;;;;;1.20;1.20;;;15.70;38.90;;;;;;10336385;28;20237;-72
2023/04/16 16:31:58;;;;;;;1.00;0.90;;;15.70;38.90;;;;;;10336591;28;20317;-72
2023/04/16 16:37:03;;;;;;;1.37;1.27;;;15.60;38.70;;;;;;10333742;28;20648;-73
2023/04/16 16:42:07;;;;;;;1.40;1.30;;;15.50;38.70;;;;;;10334361;28;20253;-73
2023/04/16 16:47:11;;;;;;;2.20;2.10;;;15.50;38.90;;;;;;10332817;28;20288;-71
2023/04/16 16:52:15;;;;;;;3.10;2.90;;;15.50;38.90;;;;;;10331444;28;20237;-72
2023/04/16 16:57:19;;;;;;;1.50;1.40;;;15.50;38.70;;;;;;10328427;28;20282;-72
2023/04/16 17:02:22;;;;;;;2.40;1.90;;;15.50;38.70;;;;;;10328233;28;20241;-72
2023/04/16 17:07:27;;;;;;;4.30;3.77;;;15.50;38.80;;;;;;10326054;28;20230;-72
2023/04/16 17:12:31;;;;;;;5.50;4.67;;;15.50;38.70;;;;;;10325162;28;20237;-72
2023/04/16 17:17:34;;;;;;;4.00;3.70;;;15.40;38.80;;;;;;10326211;28;20227;-71
2023/04/16 17:22:39;;;;;;;1.97;1.83;;;15.40;38.60;;;;;;10294191;28;1142559;-72
2023/04/16 17:27:42;;;;;;;1.80;1.70;;;15.40;38.60;;;;;;10336941;28;20226;-73
2023/04/16 17:32:46;;;;;;;1.80;1.70;;;15.30;38.80;;;;;;10327718;28;20578;-73
2023/04/16 17:37:51;;;;;;;1.23;1.20;;;15.20;38.90;;;;;;10330971;28;20790;-73
2023/04/16 17:42:54;;;;;;;1.10;1.10;;;15.20;39.00;;;;;;10338046;28;20460;-72
2023/04/16 17:47:57;;;;;;;1.07;1.07;;;15.10;39.00;;;;;;10337017;28;20230;-73
2023/04/16 17:53:02;;;;;;;1.43;0.90;;;15.00;39.10;;;;;;10333598;28;20222;-73
2023/04/16 17:58:05;;;;;;;1.20;1.20;;;14.90;39.00;;;;;;10335994;28;20234;-74
2023/04/16 18:03:10;;;;;;;1.20;1.20;;;14.90;39.40;;;;;;10328697;28;20237;-74
2023/04/16 18:08:15;;;;;;;1.00;1.00;;;14.90;39.40;;;;;;10332978;28;20266;-73
2023/04/16 18:13:18;;;;;;;1.10;1.10;;;14.90;39.40;;;;;;10330524;28;20242;-73
2023/04/16 18:18:21;;;;;;;1.00;1.00;;;14.90;39.40;;;;;;10333213;28;20667;-73
2023/04/16 18:23:26;;;;;;;1.00;1.00;;;14.90;39.60;;;;;;10333806;28;20234;-75
2023/04/16 18:28:29;;;;;;;1.30;1.20;;;14.90;39.60;;;;;;10333733;28;20757;-74
2023/04/16 18:33:32;;;;;;;3.83;1.10;;;14.90;39.60;;;;;;10336693;28;20237;-74
2023/04/16 18:38:57;;;;;;;1.17;1.07;;;14.90;39.60;;;;;;10332125;28;20234;-74
2023/04/16 18:44:18;;;;;;;1.30;1.20;;;14.90;39.60;;;;;;10348612;28;20227;-73
2023/04/16 18:49:24;;;;;;;3.37;2.77;;;14.90;39.50;;;;;;10353433;28;20235;-74
2023/04/16 18:54:29;;;;;;;3.63;3.33;;;14.80;39.20;;;;;;10344511;28;20239;-73
2023/04/16 18:59:33;;;;;;;4.53;4.23;;;14.70;39.10;;;;;;10342754;28;20233;-73
2023/04/16 19:04:36;;;;;;;3.90;3.60;;;14.60;39.10;;;;;;10343564;28;20597;-72
2023/04/16 19:09:41;;;;;;;3.57;3.30;;;14.50;39.00;;;;;;10341065;28;20230;-73
2023/04/16 19:14:44;;;;;;;3.40;3.10;;;14.30;39.20;;;;;;10340923;28;20317;-73
2023/04/16 19:19:48;;;;;;;2.53;2.33;;;14.20;39.40;;;;;;10345984;28;20791;-73
2023/04/16 19:24:53;;;;;;;2.33;2.23;;;14.10;39.40;;;;;;10346327;28;20230;-73
2023/04/16 19:29:56;;;;;;;2.40;2.20;;;14.10;39.60;;;;;;10346324;28;20305;-73
2023/04/16 19:35:00;;;;;;;2.47;2.30;;;14.10;39.70;;;;;;10349040;28;20226;-74
2023/04/16 19:40:05;;;;;;;3.03;2.80;;;14.10;39.70;;;;;;10346798;28;20628;-73
2023/04/16 19:45:09;;;;;;;2.50;2.40;;;14.10;39.60;;;;;;10348898;28;20233;-74
2023/04/16 19:50:12;;;;;;;2.50;2.30;;;14.10;39.60;;;;;;10342006;28;20237;-73
2023/04/16 19:55:17;;;;;;;2.30;2.10;;;14.00;40.30;;;;;;10346109;28;20229;-73
2023/04/16 20:00:21;;;;;;;1.93;1.83;;;14.00;39.50;;;;;;10353534;28;20701;-73
2023/04/16 20:05:25;;;;;;;1.70;1.60;;;14.00;39.40;;;;;;10349759;28;20249;-74
2023/04/16 20:10:33;;;;;;;2.30;2.20;;;14.00;39.30;;;;;;10348603;28;20233;-73
2023/04/16 20:15:37;;;;;;;2.00;1.90;;;13.90;39.00;;;;;;10347585;28;20237;-73
2023/04/16 20:20:40;;;;;;;1.77;1.67;;;13.80;38.90;;;;;;10355535;28;20251;-73
2023/04/16 20:25:46;;;;;;;1.60;1.50;;;13.60;38.80;;;;;;10329509;28;20246;-75
2023/04/16 20:30:49;;;;;;;1.77;1.67;;;13.50;38.90;;;;;;10326870;28;20219;-73
2023/04/16 20:35:56;;;;;;;5.00;2.70;;;13.40;38.90;;;;;;10328385;28;20231;-73
2023/04/16 20:41:08;;;;;;;5.37;3.77;;;13.20;38.60;;;;;;10329415;28;20234;-76
2023/04/16 20:46:12;;;;;;;3.50;3.20;;;13.00;38.80;;;;;;10330221;28;20222;-73
2023/04/16 20:51:16;;;;;;;3.67;3.37;;;12.90;38.80;;;;;;10329576;28;20230;-74
2023/04/16 20:56:20;;;;;;;3.70;3.40;;;12.70;38.70;;;;;;10326602;28;20593;-73
2023/04/16 21:01:24;;;;;;;4.87;4.43;;;12.50;39.30;;;;;;10333591;28;21206;-73
2023/04/16 21:06:31;;;;;;;4.47;3.73;;;12.40;39.40;;;;;;10329727;28;20929;-73
2023/04/16 21:11:36;;;;;;;3.90;3.60;;;12.40;39.50;;;;;;10332203;28;20615;-73
2023/04/16 21:16:40;;;;;;;3.30;3.00;;;12.30;39.70;;;;;;10333955;28;20246;-73
2023/04/16 21:21:43;;;;;;;3.80;3.40;;;12.30;39.80;;;;;;10337972;28;20241;-72
2023/04/16 21:26:48;;;;;;;3.03;2.80;;;12.30;39.90;;;;;;10338252;28;20262;-73
2023/04/16 21:31:51;;;;;;;3.23;2.93;;;12.30;40.00;;;;;;10337757;28;20238;-73
2023/04/16 21:36:55;;;;;;;3.30;3.00;;;12.30;40.00;;;;;;10335225;28;20241;-73
2023/04/16 21:42:01;;;;;;;3.40;3.20;;;12.30;40.00;;;;;;10338810;28;20234;-72
2023/04/16 21:47:04;;;;;;;3.03;2.83;;;12.20;39.80;;;;;;10337283;28;20888;-73
2023/04/16 21:52:12;;;;;;;3.53;3.23;;;12.10;39.60;;;;;;10335136;28;20245;-74
2023/04/16 21:57:17;;;;;;;2.77;2.57;;;12.00;39.90;;;;;;10331002;28;20230;-73
2023/04/16 22:02:21;;;;;;;3.17;2.90;;;12.00;40.30;;;;;;10340607;28;20452;-73
2023/04/16 22:07:25;;;;;;;2.70;2.50;;;11.90;40.30;;;;;;10336102;28;20318;-72
2023/04/16 22:12:31;;;;;;;2.73;2.43;;;11.90;40.30;;;;;;10333294;28;20226;-72
2023/04/16 22:17:34;;;;;;;2.53;2.33;;;11.90;40.70;;;;;;10333598;28;20980;-72
2023/04/16 22:22:38;;;;;;;2.60;2.40;;;11.80;40.40;;;;;;10331266;28;21032;-72
2023/04/16 22:27:42;;;;;;;3.03;2.73;;;11.80;40.40;;;;;;10332201;28;20238;-72
2023/04/16 22:32:46;;;;;;;3.20;2.90;;;11.70;40.70;;;;;;10333360;28;20648;-73
2023/04/16 22:37:49;;;;;;;2.87;2.67;;;11.70;40.90;;;;;;10333754;28;20230;-72
2023/04/16 22:42:54;;;;;;;4.07;3.33;;;11.70;41.30;;;;;;10331308;28;20314;-72
2023/04/16 22:47:57;;;;;;;3.40;3.10;;;11.70;41.40;;;;;;10335417;28;20234;-72
2023/04/16 22:53:01;;;;;;;3.17;2.83;;;11.70;41.10;;;;;;10336153;28;20246;-72
2023/04/16 22:58:05;;;;;;;2.87;2.67;;;11.60;41.30;;;;;;10332830;28;20234;-73
2023/04/16 23:03:08;;;;;;;3.10;2.83;;;11.60;41.30;;;;;;10332020;28;20706;-72
2023/04/16 23:08:12;;;;;;;3.57;3.27;;;11.60;41.00;;;;;;10330026;28;20741;-73
2023/04/16 23:13:17;;;;;;;3.00;2.80;;;11.60;40.90;;;;;;10332063;28;20227;-72
2023/04/16 23:18:20;;;;;;;2.60;2.40;;;11.50;41.30;;;;;;10327467;28;20238;-78
2023/04/16 23:23:23;;;;;;;3.00;2.80;;;11.40;41.10;;;;;;10339114;28;20786;-79
2023/04/16 23:28:28;;;;;;;2.10;2.00;;;11.50;41.30;;;;;;10339330;28;20241;-79
2023/04/16 23:33:32;;;;;;;2.33;2.23;;;11.40;41.20;;;;;;10341698;28;20222;-79
2023/04/16 23:38:36;;;;;;;2.30;2.10;;;11.50;41.30;;;;;;10341889;28;20230;-79
2023/04/16 23:43:42;;;;;;;3.60;2.70;;;11.50;41.30;;;;;;10340824;28;20230;-79
2023/04/16 23:48:46;;;;;;;2.80;2.60;;;11.60;41.80;;;;;;10341505;28;20711;-79
2023/04/16 23:53:49;;;;;;;2.70;2.50;;;11.60;41.30;;;;;;10341212;28;20595;-79
2023/04/16 23:58:54;;;;;;;2.57;2.37;;;11.50;41.30;;;;;;10341243;28;20314;-79
